createdAt,value
2023-03-26T00:01:02.986Z,74.02
2023-03-26T00:03:32.503Z,73.66
2023-03-26T00:06:04.533Z,73.89
2023-03-26T00:08:32.406Z,74.36
2023-03-26T00:11:01.288Z,74.21
2023-03-26T00:13:30.823Z,74.05
2023-03-26T00:15:58.643Z,74.14
2023-03-26T00:18:30.819Z,74.05
2023-03-26T00:20:59.229Z,74.75
2023-03-26T00:23:28.333Z,74.70
2023-03-26T00:25:57.251Z,74.70
2023-03-26T00:28:26.377Z,75.42
2023-03-26T00:31:00.612Z,75.98
2023-03-26T00:33:28.746Z,76.62
2023-03-26T00:36:03.205Z,76.99
2023-03-26T00:38:32.424Z,77.67
2023-03-26T00:41:05.979Z,78.63
2023-03-26T00:43:35.270Z,78.81
2023-03-26T00:46:05.083Z,79.14
2023-03-26T00:48:44.554Z,79.53
2023-03-26T00:51:15.948Z,79.70
2023-03-26T00:53:44.517Z,79.87
2023-03-26T00:56:13.009Z,79.96
2023-03-26T00:58:41.247Z,80.07
2023-03-26T01:01:14.404Z,80.09
2023-03-26T01:03:53.183Z,80.35
2023-03-26T01:06:27.938Z,80.52
2023-03-26T01:09:00.511Z,80.77
2023-03-26T01:11:31.930Z,80.40
2023-03-26T01:14:02.413Z,80.21
2023-03-26T01:16:37.233Z,80.11
2023-03-26T01:19:10.316Z,80.23
2023-03-26T01:21:39.691Z,79.93
2023-03-26T01:24:12.025Z,80.71
2023-03-26T01:27:01.530Z,80.50
2023-03-26T01:29:34.035Z,80.14
2023-03-26T01:32:10.574Z,80.02
2023-03-26T01:34:49.826Z,79.89
2023-03-26T01:37:23.175Z,80.65
2023-03-26T01:39:57.395Z,80.31
2023-03-26T01:42:32.935Z,80.17
2023-03-26T01:45:05.235Z,80.44
2023-03-26T01:47:33.700Z,80.95
2023-03-26T01:50:01.867Z,81.11
2023-03-26T01:52:29.775Z,81.33
2023-03-26T01:54:59.760Z,81.45
2023-03-26T01:57:35.920Z,81.01
2023-03-26T02:00:21.054Z,81.21
2023-03-26T02:03:00.944Z,81.70
2023-03-26T02:05:32.626Z,81.41
2023-03-26T02:08:05.455Z,81.42
2023-03-26T02:10:38.273Z,81.07
2023-03-26T02:13:06.801Z,81.25
2023-03-26T02:15:38.402Z,81.34
2023-03-26T02:18:07.174Z,81.58
2023-03-26T02:20:35.009Z,81.44
2023-03-26T02:23:02.848Z,81.49
2023-03-26T02:25:30.773Z,81.61
2023-03-26T02:27:59.952Z,81.83
2023-03-26T02:30:29.754Z,82.07
2023-03-26T02:32:59.230Z,82.00
2023-03-26T02:35:27.877Z,81.55
2023-03-26T02:37:56.015Z,81.73
2023-03-26T02:40:25.159Z,81.65
2023-03-26T02:42:53.126Z,81.30
2023-03-26T02:45:22.654Z,81.65
2023-03-26T02:47:51.206Z,81.01
2023-03-26T02:50:19.359Z,81.44
2023-03-26T02:52:49.886Z,81.17
2023-03-26T02:55:17.977Z,81.58
2023-03-26T02:57:46.062Z,81.17
2023-03-26T03:00:17.172Z,81.39
2023-03-26T03:02:48.157Z,81.03
2023-03-26T03:05:18.114Z,81.61
2023-03-26T03:07:46.690Z,81.71
2023-03-26T03:10:15.702Z,81.68
2023-03-26T03:12:43.733Z,81.94
2023-03-26T03:15:15.584Z,81.55
2023-03-26T03:17:43.715Z,82.01
2023-03-26T03:20:13.524Z,82.05
2023-03-26T03:22:42.028Z,82.16
2023-03-26T03:25:14.292Z,81.58
2023-03-26T03:27:43.006Z,81.82
2023-03-26T03:30:13.569Z,82.05
2023-03-26T03:32:41.774Z,81.89
2023-03-26T03:35:10.324Z,81.79
2023-03-26T03:37:39.619Z,81.91
2023-03-26T03:40:10.954Z,81.75
2023-03-26T03:42:39.223Z,81.91
2023-03-26T03:45:08.351Z,82.12
2023-03-26T03:47:36.292Z,81.75
2023-03-26T03:50:04.617Z,81.86
2023-03-26T03:52:32.918Z,82.08
2023-03-26T03:55:02.347Z,82.01
2023-03-26T03:57:32.136Z,81.96
2023-03-26T04:00:00.195Z,82.07
2023-03-26T04:02:34.688Z,81.86
2023-03-26T04:05:03.121Z,81.42
2023-03-26T04:07:32.238Z,81.34
2023-03-26T04:10:02.910Z,81.97
2023-03-26T04:12:32.621Z,81.63
2023-03-26T04:15:01.004Z,81.45
2023-03-26T04:17:30.430Z,81.54
2023-03-26T04:19:58.704Z,81.76
2023-03-26T04:22:36.447Z,81.64
2023-03-26T04:25:05.458Z,82.31
2023-03-26T04:27:36.826Z,81.88
2023-03-26T04:30:07.041Z,82.46
2023-03-26T04:32:35.590Z,82.20
2023-03-26T04:35:05.393Z,82.18
2023-03-26T04:37:35.067Z,82.35
2023-03-26T04:40:09.550Z,81.93
2023-03-26T04:42:41.756Z,82.48
2023-03-26T04:45:11.278Z,82.56
2023-03-26T04:47:39.656Z,82.26
2023-03-26T04:50:09.320Z,82.42
2023-03-26T04:52:37.402Z,82.53
2023-03-26T04:55:06.965Z,82.30
2023-03-26T04:57:37.146Z,82.33
2023-03-26T05:00:15.529Z,82.61
2023-03-26T05:02:43.797Z,82.78
2023-03-26T05:05:11.949Z,82.98
2023-03-26T05:07:39.794Z,83.18
2023-03-26T05:10:08.673Z,83.11
2023-03-26T05:12:36.453Z,83.23
2023-03-26T05:15:04.693Z,83.42
2023-03-26T05:17:41.473Z,82.91
2023-03-26T05:20:17.403Z,83.46
2023-03-26T05:22:45.698Z,83.15
2023-03-26T05:25:13.621Z,83.48
2023-03-26T05:27:41.477Z,83.50
2023-03-26T05:30:10.150Z,83.29
2023-03-26T05:32:39.395Z,83.31
2023-03-26T05:35:08.689Z,83.59
2023-03-26T05:37:37.746Z,83.11
2023-03-26T05:40:11.670Z,84.14
2023-03-26T05:42:39.915Z,83.76
2023-03-26T05:45:08.983Z,84.46
2023-03-26T05:47:36.818Z,84.22
2023-03-26T05:50:07.504Z,84.02
2023-03-26T05:52:35.355Z,85.14
2023-03-26T05:55:03.264Z,84.83
2023-03-26T05:57:31.423Z,84.59
2023-03-26T05:59:59.363Z,84.71
2023-03-26T06:02:27.208Z,85.26
2023-03-26T06:04:56.826Z,85.46
2023-03-26T06:07:27.130Z,85.03
2023-03-26T06:09:54.971Z,85.12
2023-03-26T06:12:22.776Z,85.21
2023-03-26T06:14:50.698Z,84.89
2023-03-26T06:17:18.557Z,85.36
2023-03-26T06:19:47.906Z,84.97
2023-03-26T06:22:15.771Z,85.28
2023-03-26T06:24:44.894Z,85.34
2023-03-26T06:27:12.694Z,86.11
2023-03-26T06:29:40.475Z,85.76
2023-03-26T06:32:19.111Z,86.04
2023-03-26T06:34:48.091Z,85.62
2023-03-26T06:37:15.900Z,85.33
2023-03-26T06:39:45.006Z,85.90
2023-03-26T06:42:12.914Z,85.94
2023-03-26T06:44:40.756Z,85.37
2023-03-26T06:47:08.601Z,85.37
2023-03-26T06:49:38.219Z,86.29
2023-03-26T06:52:06.269Z,85.84
2023-03-26T06:54:34.071Z,86.07
2023-03-26T06:57:03.418Z,86.04
2023-03-26T06:59:31.525Z,85.80
2023-03-26T07:01:59.289Z,85.58
2023-03-26T07:04:27.133Z,85.88
2023-03-26T07:06:54.997Z,86.19
2023-03-26T07:09:22.923Z,86.26
2023-03-26T07:11:50.802Z,85.71
2023-03-26T07:14:20.008Z,86.11
2023-03-26T07:16:47.780Z,85.93
2023-03-26T07:19:15.613Z,86.37
2023-03-26T07:21:43.976Z,85.93
2023-03-26T07:24:13.759Z,86.58
2023-03-26T07:26:49.308Z,86.52
2023-03-26T07:29:22.101Z,86.17
2023-03-26T07:31:54.397Z,86.34
2023-03-26T07:34:32.670Z,86.14
2023-03-26T07:37:04.624Z,86.73
2023-03-26T07:39:42.146Z,86.59
2023-03-26T07:42:19.480Z,86.71
2023-03-26T07:44:52.910Z,86.57
2023-03-26T07:47:26.220Z,86.97
2023-03-26T07:49:57.877Z,87.09
2023-03-26T07:52:27.059Z,87.11
2023-03-26T07:54:55.595Z,87.46
2023-03-26T07:57:33.830Z,87.68
2023-03-26T08:00:11.763Z,87.76
2023-03-26T08:02:53.680Z,87.57
2023-03-26T08:05:26.330Z,87.43
2023-03-26T08:08:01.074Z,87.20
2023-03-26T08:10:34.781Z,87.90
2023-03-26T08:13:11.772Z,87.36
2023-03-26T08:15:45.486Z,88.11
2023-03-26T08:18:27.310Z,87.59
2023-03-26T08:20:58.487Z,87.92
2023-03-26T08:23:30.838Z,88.34
2023-03-26T08:26:02.657Z,88.46
2023-03-26T08:28:52.706Z,88.46
2023-03-26T08:31:28.663Z,89.10
2023-03-26T08:33:56.563Z,89.30
2023-03-26T08:36:24.530Z,88.63
2023-03-26T08:38:52.567Z,89.20
2023-03-26T08:42:05.805Z,89.12
2023-03-26T08:45:08.736Z,89.35
2023-03-26T08:48:13.214Z,89.08
2023-03-26T08:51:10.589Z,89.29
2023-03-26T08:53:54.090Z,89.76
2023-03-26T08:56:26.317Z,89.40
2023-03-26T08:59:15.953Z,90.01
2023-03-26T09:02:12.853Z,89.00
2023-03-26T09:05:35.023Z,89.34
2023-03-26T09:08:54.812Z,89.27
2023-03-26T09:11:40.838Z,89.00
2023-03-26T09:14:39.898Z,88.98
2023-03-26T09:17:19.417Z,88.96
2023-03-26T09:20:09.804Z,88.52
2023-03-26T09:22:54.587Z,87.84
2023-03-26T09:25:42.971Z,87.66
2023-03-26T09:28:51.209Z,88.32
2023-03-26T09:31:49.278Z,88.22
2023-03-26T09:34:29.921Z,87.88
2023-03-26T09:37:12.241Z,87.95
2023-03-26T09:39:48.018Z,87.69
2023-03-26T09:42:19.279Z,87.93
2023-03-26T09:45:25.326Z,87.41
2023-03-26T09:48:12.212Z,87.35
2023-03-26T09:50:58.690Z,86.92
2023-03-26T09:53:50.591Z,87.25
2023-03-26T09:56:32.306Z,87.02
2023-03-26T09:59:20.154Z,87.04
2023-03-26T10:01:55.716Z,86.79
2023-03-26T10:05:02.206Z,86.78
2023-03-26T10:07:55.921Z,86.65
2023-03-26T10:10:30.459Z,86.53
2023-03-26T10:13:13.581Z,86.46
2023-03-26T10:15:57.265Z,86.76
2023-03-26T10:18:32.338Z,86.53
2023-03-26T10:21:03.650Z,86.24
2023-03-26T10:23:47.856Z,86.43
2023-03-26T10:26:32.641Z,85.85
2023-03-26T10:29:27.816Z,85.94
2023-03-26T10:32:00.036Z,85.74
2023-03-26T10:34:40.241Z,85.88
2023-03-26T10:37:10.730Z,85.82
2023-03-26T10:39:55.894Z,85.69
2023-03-26T10:42:41.810Z,85.19
2023-03-26T10:45:38.119Z,83.62
2023-03-26T10:48:35.436Z,83.87
2023-03-26T10:51:36.369Z,84.49
2023-03-26T10:54:07.920Z,84.04
2023-03-26T10:56:37.195Z,83.94
2023-03-26T10:59:08.736Z,83.56
2023-03-26T11:01:42.809Z,83.82
2023-03-26T11:04:21.840Z,84.00
2023-03-26T11:06:55.784Z,84.02
2023-03-26T11:09:31.331Z,83.60
2023-03-26T11:12:03.554Z,83.61
2023-03-26T11:14:58.880Z,83.44
2023-03-26T11:17:40.198Z,83.03
2023-03-26T11:20:12.091Z,82.57
2023-03-26T11:22:47.410Z,81.92
2023-03-26T11:25:39.041Z,81.91
2023-03-26T11:28:17.796Z,82.06
2023-03-26T11:30:50.160Z,82.28
2023-03-26T11:33:21.378Z,81.51
2023-03-26T11:35:51.078Z,80.41
2023-03-26T11:38:24.134Z,78.89
2023-03-26T11:40:55.387Z,77.75
2023-03-26T11:43:25.986Z,75.69
2023-03-26T11:46:08.169Z,74.97
2023-03-26T11:48:40.727Z,74.61
2023-03-26T11:51:11.637Z,74.63
2023-03-26T11:53:40.767Z,73.85
2023-03-26T11:56:14.975Z,74.19
2023-03-26T11:58:46.806Z,74.51
2023-03-26T12:01:18.791Z,75.41
2023-03-26T12:03:58.613Z,75.43
2023-03-26T12:06:29.004Z,74.22
2023-03-26T12:08:58.053Z,73.87
2023-03-26T12:11:28.282Z,74.02
2023-03-26T12:13:59.666Z,73.38
2023-03-26T12:16:29.575Z,73.71
2023-03-26T12:19:02.810Z,74.19
2023-03-26T12:21:31.025Z,74.37
2023-03-26T12:24:00.462Z,74.46
2023-03-26T12:26:36.267Z,74.50
2023-03-26T12:29:10.413Z,75.04
2023-03-26T12:31:54.887Z,74.96
2023-03-26T12:34:24.101Z,75.52
2023-03-26T12:36:56.596Z,75.18
2023-03-26T12:40:06.775Z,74.78
2023-03-26T12:44:49.265Z,70.87
2023-03-26T12:45:17.969Z,71.46
2023-03-26T12:48:01.350Z,70.65
2023-03-26T12:50:40.690Z,70.32
2023-03-26T12:53:29.149Z,70.01
2023-03-26T12:56:01.549Z,67.13
2023-03-26T12:58:47.948Z,65.67
2023-03-26T13:01:20.651Z,64.05
2023-03-26T13:04:04.848Z,63.38
2023-03-26T13:07:01.048Z,63.23
2023-03-26T13:09:37.617Z,62.63
2023-03-26T13:12:10.960Z,63.02
2023-03-26T13:14:49.450Z,63.30
2023-03-26T13:17:23.786Z,64.56
2023-03-26T13:19:59.671Z,63.99
2023-03-26T13:22:31.800Z,62.66
2023-03-26T13:25:06.855Z,65.07
2023-03-26T13:27:50.763Z,64.53
2023-03-26T13:30:28.071Z,63.48
2023-03-26T13:33:08.427Z,59.65
2023-03-26T13:35:42.199Z,60.08
2023-03-26T13:38:14.439Z,59.25
2023-03-26T13:40:48.736Z,59.55
2023-03-26T13:43:27.589Z,61.57
2023-03-26T13:45:58.700Z,61.88
2023-03-26T13:48:29.821Z,60.85
2023-03-26T13:51:05.254Z,62.50
2023-03-26T13:53:38.610Z,61.64
2023-03-26T13:56:09.484Z,59.75
2023-03-26T13:58:40.524Z,58.08
2023-03-26T14:01:10.105Z,59.69
2023-03-26T14:03:45.930Z,59.85
2023-03-26T14:06:24.793Z,61.31
2023-03-26T14:08:56.263Z,60.09
2023-03-26T14:11:39.296Z,59.35
2023-03-26T14:14:09.053Z,57.25
2023-03-26T14:16:39.420Z,58.64
2023-03-26T14:19:28.912Z,58.96
2023-03-26T14:22:04.394Z,58.10
2023-03-26T14:24:55.505Z,58.83
2023-03-26T14:27:38.755Z,58.93
2023-03-26T14:30:43.231Z,59.58
2023-03-26T14:33:28.132Z,60.23
2023-03-26T14:36:01.449Z,60.33
2023-03-26T14:38:54.304Z,60.70
2023-03-26T14:41:25.366Z,61.84
2023-03-26T14:44:28.638Z,61.64
2023-03-26T14:47:04.680Z,61.53
2023-03-26T14:50:10.981Z,60.48
2023-03-26T14:52:46.131Z,60.89
2023-03-26T14:55:18.345Z,60.82
2023-03-26T14:58:03.769Z,61.82
2023-03-26T15:01:03.919Z,61.81
2023-03-26T15:04:10.791Z,61.60
2023-03-26T15:07:25.873Z,60.50
2023-03-26T15:10:32.286Z,60.83
2023-03-26T15:13:11.880Z,61.22
2023-03-26T15:16:04.566Z,62.41
2023-03-26T15:19:27.278Z,64.59
2023-03-26T15:22:29.198Z,68.52
2023-03-26T15:25:22.510Z,71.59
2023-03-26T15:28:46.853Z,73.78
2023-03-26T15:31:36.933Z,75.32
2023-03-26T15:34:30.428Z,76.23
2023-03-26T15:37:28.880Z,77.24
2023-03-26T15:40:26.520Z,77.74
2023-03-26T15:43:01.477Z,76.73
2023-03-26T15:45:37.820Z,77.59
2023-03-26T15:48:39.197Z,77.05
2023-03-26T15:51:24.394Z,77.25
2023-03-26T15:53:56.465Z,76.84
2023-03-26T15:56:32.932Z,77.26
2023-03-26T15:59:06.914Z,75.39
2023-03-26T16:01:47.154Z,74.55
2023-03-26T16:04:25.044Z,74.22
2023-03-26T16:07:02.954Z,72.74
2023-03-26T16:09:49.561Z,73.51
2023-03-26T16:12:30.836Z,74.65
2023-03-26T16:15:26.847Z,75.24
2023-03-26T16:18:22.720Z,75.97
2023-03-26T16:20:54.693Z,75.84
2023-03-26T16:23:31.429Z,76.39
2023-03-26T16:26:15.961Z,76.60
2023-03-26T16:29:18.141Z,76.81
2023-03-26T16:32:12.437Z,78.08
2023-03-26T16:34:46.722Z,78.55
2023-03-26T16:37:40.872Z,78.95
2023-03-26T16:40:33.931Z,79.22
2023-03-26T16:43:11.321Z,79.56
2023-03-26T16:45:43.676Z,79.76
2023-03-26T16:48:23.372Z,79.56
2023-03-26T16:50:54.622Z,79.76
2023-03-26T16:53:34.442Z,79.90
2023-03-26T16:56:08.836Z,79.84
2023-03-26T16:58:44.030Z,79.98
2023-03-26T17:01:17.326Z,80.05
2023-03-26T17:03:52.021Z,80.56
2023-03-26T17:06:30.640Z,80.72
2023-03-26T17:09:10.675Z,80.80
2023-03-26T17:11:48.116Z,80.89
2023-03-26T17:14:26.771Z,81.31
2023-03-26T17:17:10.109Z,81.58
2023-03-26T17:19:45.272Z,81.98
2023-03-26T17:22:17.549Z,82.14
2023-03-26T17:24:48.952Z,82.40
2023-03-26T17:27:27.037Z,82.54
2023-03-26T17:30:05.101Z,82.51
2023-03-26T17:32:55.489Z,82.56
2023-03-26T17:35:38.141Z,81.62
2023-03-26T17:38:32.941Z,81.53
2023-03-26T17:41:01.240Z,81.23
2023-03-26T17:43:44.109Z,81.40
2023-03-26T17:46:28.718Z,81.66
2023-03-26T17:49:01.035Z,81.72
2023-03-26T17:51:40.315Z,81.75
2023-03-26T17:54:10.204Z,81.66
2023-03-26T17:56:38.843Z,81.70
2023-03-26T17:59:11.552Z,81.27
2023-03-26T18:01:41.366Z,81.60
2023-03-26T18:04:12.846Z,81.64
2023-03-26T18:06:51.633Z,81.51
2023-03-26T18:09:31.546Z,81.50
2023-03-26T18:12:17.549Z,81.41
2023-03-26T18:15:25.641Z,81.55
2023-03-26T18:17:58.257Z,81.49
2023-03-26T18:20:28.226Z,82.23
2023-03-26T18:22:57.503Z,82.65
2023-03-26T18:25:27.863Z,82.03
2023-03-26T18:27:57.342Z,82.80
2023-03-26T18:30:27.016Z,82.97
2023-03-26T18:33:08.051Z,83.12
2023-03-26T18:35:41.640Z,83.46
2023-03-26T18:38:14.787Z,83.54
2023-03-26T18:40:43.090Z,84.13
2023-03-26T18:43:28.613Z,84.42
2023-03-26T18:46:04.795Z,84.19
2023-03-26T18:48:32.810Z,84.73
2023-03-26T18:51:05.093Z,85.22
2023-03-26T18:53:38.248Z,85.21
2023-03-26T18:56:20.375Z,84.83
2023-03-26T18:58:53.056Z,84.67
2023-03-26T19:01:25.958Z,85.21
2023-03-26T19:03:54.714Z,85.21
2023-03-26T19:06:23.337Z,85.74
2023-03-26T19:08:52.386Z,85.60
2023-03-26T19:11:20.243Z,85.24
2023-03-26T19:13:52.046Z,85.93
2023-03-26T19:16:24.309Z,85.46
2023-03-26T19:18:52.460Z,85.47
2023-03-26T19:21:23.238Z,85.93
2023-03-26T19:23:52.692Z,85.83
2023-03-26T19:26:20.662Z,85.62
2023-03-26T19:28:51.466Z,85.38
2023-03-26T19:31:25.859Z,85.38
2023-03-26T19:33:59.037Z,85.62
2023-03-26T19:36:29.707Z,85.78
2023-03-26T19:39:10.757Z,85.49
2023-03-26T19:44:39.824Z,85.44
2023-03-26T19:47:16.876Z,85.32
2023-03-26T19:49:51.553Z,85.16
2023-03-26T19:52:22.854Z,84.96
2023-03-26T19:54:59.600Z,85.80
2023-03-26T19:57:29.354Z,85.67
2023-03-26T19:59:57.552Z,85.48
2023-03-26T20:02:27.081Z,85.59
2023-03-26T20:04:55.017Z,85.11
2023-03-26T20:07:35.317Z,85.43
2023-03-26T20:10:05.714Z,85.30
2023-03-26T20:12:33.772Z,85.32
2023-03-26T20:15:02.151Z,85.09
2023-03-26T20:17:34.796Z,85.69
2023-03-26T20:20:05.763Z,84.88
2023-03-26T20:22:33.621Z,85.03
2023-03-26T20:25:03.155Z,84.85
2023-03-26T20:27:31.116Z,84.79
2023-03-26T20:29:58.890Z,85.21
2023-03-26T20:32:27.418Z,84.77
2023-03-26T20:34:57.730Z,84.92
2023-03-26T20:37:25.710Z,84.86
2023-03-26T20:39:53.472Z,85.04
2023-03-26T20:42:21.446Z,85.57
2023-03-26T20:44:49.341Z,85.65
2023-03-26T20:47:17.253Z,85.20
2023-03-26T20:49:45.026Z,85.29
2023-03-26T20:52:15.449Z,85.29
2023-03-26T20:54:43.626Z,85.46
2023-03-26T20:57:13.442Z,85.61
2023-03-26T20:59:42.040Z,84.87
2023-03-26T21:02:12.030Z,85.34
2023-03-26T21:04:39.960Z,84.90
2023-03-26T21:07:17.815Z,85.32
2023-03-26T21:09:48.730Z,84.69
2023-03-26T21:12:21.558Z,84.91
2023-03-26T21:14:49.914Z,84.97
2023-03-26T21:17:19.715Z,85.30
2023-03-26T21:19:48.324Z,84.71
2023-03-26T21:22:26.292Z,84.82
2023-03-26T21:25:06.519Z,84.61
2023-03-26T21:27:40.276Z,84.37
2023-03-26T21:30:13.791Z,84.86
2023-03-26T21:32:42.652Z,85.04
2023-03-26T21:35:13.361Z,85.05
2023-03-26T21:37:42.772Z,84.50
2023-03-26T21:40:16.318Z,84.57
2023-03-26T21:42:45.090Z,84.43
2023-03-26T21:45:13.950Z,84.92
2023-03-26T21:47:42.498Z,84.78
2023-03-26T21:50:12.563Z,85.09
2023-03-26T21:52:47.095Z,84.98
2023-03-26T21:55:18.260Z,84.78
2023-03-26T21:57:59.574Z,85.27
2023-03-26T22:00:41.086Z,84.51
2023-03-26T22:03:16.566Z,84.79
2023-03-26T22:05:49.104Z,85.16
2023-03-26T22:08:23.318Z,84.85
2023-03-26T22:10:52.479Z,84.84
2023-03-26T22:13:20.594Z,84.87
2023-03-26T22:15:49.315Z,85.06
2023-03-26T22:18:21.208Z,84.47
2023-03-26T22:20:49.583Z,84.57
2023-03-26T22:23:18.344Z,84.36
2023-03-26T22:25:46.211Z,83.91
2023-03-26T22:28:15.568Z,83.92
2023-03-26T22:30:43.664Z,83.58
2023-03-26T22:33:12.271Z,83.51
2023-03-26T22:35:42.149Z,83.24
2023-03-26T22:38:11.847Z,82.37
2023-03-26T22:40:39.983Z,82.90
2023-03-26T22:43:07.962Z,82.91
2023-03-26T22:45:38.311Z,82.60
2023-03-26T22:48:06.234Z,82.46
2023-03-26T22:50:35.003Z,82.31
2023-03-26T22:53:03.059Z,82.73
2023-03-26T22:55:30.843Z,82.30
2023-03-26T22:57:59.232Z,82.85
2023-03-26T23:00:27.560Z,82.86
2023-03-26T23:03:00.235Z,82.74
2023-03-26T23:05:29.448Z,83.50
2023-03-26T23:07:57.437Z,83.37
2023-03-26T23:10:25.214Z,83.09
2023-03-26T23:12:53.834Z,83.31
2023-03-26T23:15:22.293Z,83.23
2023-03-26T23:17:54.231Z,83.05
2023-03-26T23:20:24.477Z,83.60
2023-03-26T23:22:52.788Z,83.68
2023-03-26T23:25:20.995Z,83.23
2023-03-26T23:27:50.620Z,83.62
2023-03-26T23:30:19.275Z,83.21
2023-03-26T23:32:47.360Z,83.63
2023-03-26T23:35:15.653Z,83.55
2023-03-26T23:37:44.822Z,83.05
2023-03-26T23:40:14.313Z,82.29
2023-03-26T23:42:42.611Z,81.62
2023-03-26T23:45:12.454Z,80.91
2023-03-26T23:47:42.672Z,80.62
2023-03-26T23:50:11.655Z,80.50
2023-03-26T23:52:39.498Z,79.01
2023-03-26T23:55:09.821Z,79.06
2023-03-26T23:57:37.938Z,78.95
